Wendel, California
Current Conditions -  °F | °C
As of 4:35 PM on Thursday 27 Nov 2014 (Local Time) from KRTS Reporting Station
Clear Clear  
Wind Chill: 63°   Ceiling: Unl
Heat Index: 63°   Visibility: 10mi
Dew Point:   Wind: 13mph
Humidity: 9%   Direction: 230°SW
Pressure: 30.16"   Gusts: 21mph
Location:  40.35°N, 120.24°W
Report Text: KRTS 280035Z AUTO 23011G18KT 10SM CLR 17/M17 A3016 RMK AO2
Loading
Personal Weather Stations






























Interactive Weather Map New forecast layout! Learn more

10-Day Weather Forecast

Advertisements
Track Severe Weather on mobile